Time;durP1;ratioP1;P1;durP2;ratioP2;P2;SDS_P1;SDS_P2;PMS_P1;PMS_P2;Temp;Humidity;BMP_temperature;BMP_pressure;BME280_temperature;BME280_humidity;BME280_pressure;Samples;Min_cycle;Max_cycle;Signal;HPM_P1;HPM_P2
2023/10/22 00:01:20;;;;;;;7.18;1.10;;;12.40;99.90;;;;;;5095915;28;20082;-72
2023/10/22 00:03:46;;;;;;;9.35;1.33;;;12.40;99.90;;;;;;5096313;28;20044;-72
2023/10/22 00:06:11;;;;;;;6.57;1.40;;;12.50;99.90;;;;;;5096142;28;20048;-74
2023/10/22 00:08:37;;;;;;;6.82;1.00;;;12.50;99.90;;;;;;5093545;28;20032;-73
2023/10/22 00:11:02;;;;;;;5.95;1.00;;;12.50;99.90;;;;;;5096049;28;20129;-73
2023/10/22 00:13:28;;;;;;;9.65;1.63;;;12.50;99.90;;;;;;5105571;28;20044;-73
2023/10/22 00:15:56;;;;;;;5.70;0.98;;;12.50;99.90;;;;;;5108411;28;20055;-72
2023/10/22 00:18:22;;;;;;;6.47;1.17;;;12.50;99.90;;;;;;5109598;28;20044;-74
2023/10/22 00:20:47;;;;;;;10.48;1.40;;;12.50;99.90;;;;;;5096745;28;20399;-73
2023/10/22 00:23:13;;;;;;;4.53;0.77;;;12.50;99.90;;;;;;5094603;28;20048;-73
2023/10/22 00:25:38;;;;;;;5.38;0.95;;;12.50;99.90;;;;;;5111757;28;20031;-73
2023/10/22 00:28:04;;;;;;;7.78;1.15;;;12.50;99.90;;;;;;5113576;28;20093;-73
2023/10/22 00:30:34;;;;;;;7.13;1.10;;;12.50;99.90;;;;;;5104263;28;20494;-73
2023/10/22 00:32:59;;;;;;;6.05;0.88;;;12.50;99.90;;;;;;5112477;28;20668;-73
2023/10/22 00:35:25;;;;;;;7.85;1.58;;;12.50;99.90;;;;;;5107925;28;20050;-74
2023/10/22 00:37:51;;;;;;;5.72;1.02;;;12.50;99.90;;;;;;5115704;28;20058;-72
2023/10/22 00:40:17;;;;;;;5.57;0.93;;;12.50;99.90;;;;;;5096520;28;20040;-74
2023/10/22 00:42:42;;;;;;;6.07;1.15;;;12.60;99.90;;;;;;5096480;28;20437;-72
2023/10/22 00:45:08;;;;;;;5.50;0.98;;;12.60;99.90;;;;;;5105851;28;20043;-72
2023/10/22 00:47:35;;;;;;;6.07;1.08;;;12.60;99.90;;;;;;5095538;28;20044;-73
2023/10/22 00:50:02;;;;;;;4.88;0.88;;;12.60;99.90;;;;;;5090607;28;20063;-73
2023/10/22 00:52:31;;;;;;;4.13;1.15;;;12.60;99.90;;;;;;5095294;28;20488;-72
2023/10/22 00:54:58;;;;;;;5.10;1.10;;;12.60;99.90;;;;;;5095103;28;20044;-73
2023/10/22 00:57:24;;;;;;;3.00;0.73;;;12.60;99.90;;;;;;5095320;28;20040;-72
2023/10/22 00:59:52;;;;;;;4.50;0.75;;;12.60;99.90;;;;;;5095168;28;20439;-73
2023/10/22 01:02:19;;;;;;;6.80;0.80;;;12.70;99.90;;;;;;5093663;28;20051;-73
2023/10/22 01:04:45;;;;;;;5.38;0.70;;;12.80;99.90;;;;;;5085688;28;20622;-73
2023/10/22 01:07:11;;;;;;;3.88;0.70;;;12.70;99.90;;;;;;5095214;28;20163;-73
2023/10/22 01:09:37;;;;;;;3.80;0.63;;;12.70;99.90;;;;;;5093761;28;20123;-73
2023/10/22 01:12:05;;;;;;;3.65;0.70;;;12.70;99.90;;;;;;5094354;28;20123;-72
2023/10/22 01:14:31;;;;;;;6.68;0.80;;;12.70;99.90;;;;;;5094694;28;20055;-72
2023/10/22 01:16:57;;;;;;;4.35;0.80;;;12.70;99.90;;;;;;5093154;28;20128;-73
2023/10/22 01:19:23;;;;;;;5.00;0.77;;;12.70;99.90;;;;;;5094208;28;20059;-73
2023/10/22 01:21:49;;;;;;;6.55;1.15;;;12.80;99.90;;;;;;5079996;28;20039;-72
2023/10/22 01:24:15;;;;;;;5.15;0.90;;;12.80;99.90;;;;;;5096930;28;20048;-73
2023/10/22 01:26:42;;;;;;;3.40;0.88;;;12.80;99.90;;;;;;5092200;28;20091;-72
2023/10/22 01:29:08;;;;;;;3.08;0.50;;;12.80;99.90;;;;;;5093390;28;20128;-73
2023/10/22 01:31:34;;;;;;;5.22;1.20;;;12.70;99.90;;;;;;5056408;28;20041;-73
2023/10/22 01:34:00;;;;;;;8.10;0.75;;;12.80;99.90;;;;;;5081597;28;20044;-73
2023/10/22 01:36:26;;;;;;;4.38;1.00;;;12.80;99.90;;;;;;5093807;28;20127;-73
2023/10/22 01:38:51;;;;;;;3.50;0.95;;;12.80;99.90;;;;;;5091942;28;20060;-74
2023/10/22 01:41:17;;;;;;;4.38;0.77;;;12.70;99.90;;;;;;5093304;28;20040;-73
2023/10/22 01:43:43;;;;;;;3.15;0.70;;;12.70;99.90;;;;;;5093195;28;20083;-73
2023/10/22 01:46:09;;;;;;;6.07;0.90;;;12.70;99.90;;;;;;5082557;28;20547;-73
2023/10/22 01:48:35;;;;;;;7.97;0.85;;;12.60;99.90;;;;;;5074377;28;20048;-72
2023/10/22 01:51:01;;;;;;;4.63;0.70;;;12.50;99.90;;;;;;5075860;28;20135;-73
2023/10/22 01:53:27;;;;;;;3.40;0.90;;;12.50;99.90;;;;;;5092445;28;20071;-73
2023/10/22 01:55:52;;;;;;;4.15;1.05;;;12.50;99.90;;;;;;5093908;28;20043;-72
2023/10/22 01:58:18;;;;;;;8.05;1.10;;;12.40;99.90;;;;;;5093464;28;20090;-73
2023/10/22 02:00:44;;;;;;;4.75;1.08;;;12.30;99.90;;;;;;5094264;28;20048;-73
2023/10/22 02:03:10;;;;;;;4.47;0.73;;;12.30;99.90;;;;;;5092792;28;20051;-73
2023/10/22 02:05:36;;;;;;;12.10;1.20;;;12.20;99.90;;;;;;5093790;28;20041;-73
2023/10/22 02:08:03;;;;;;;5.80;0.93;;;12.20;99.90;;;;;;5093577;28;20127;-73
2023/10/22 02:10:30;;;;;;;7.22;0.90;;;12.20;99.90;;;;;;5093084;28;20499;-73
2023/10/22 02:12:55;;;;;;;8.02;1.00;;;12.20;99.90;;;;;;5093105;28;20165;-73
2023/10/22 02:15:21;;;;;;;4.90;1.00;;;12.20;99.90;;;;;;5093677;28;20127;-73
2023/10/22 02:17:47;;;;;;;9.52;1.33;;;12.10;99.90;;;;;;5093075;28;20055;-73
2023/10/22 02:20:12;;;;;;;3.28;0.90;;;12.10;99.90;;;;;;5092795;28;20040;-77
2023/10/22 02:22:38;;;;;;;5.20;1.17;;;12.10;99.90;;;;;;5092792;28;20161;-72
2023/10/22 02:25:05;;;;;;;4.20;1.05;;;12.00;99.90;;;;;;5092744;28;20036;-73
2023/10/22 02:27:31;;;;;;;5.82;1.20;;;12.00;99.90;;;;;;5093712;28;20036;-73
2023/10/22 02:29:58;;;;;;;3.08;1.13;;;12.00;99.90;;;;;;5092812;28;20127;-73
2023/10/22 02:32:23;;;;;;;4.75;1.10;;;12.00;99.90;;;;;;5093817;28;20090;-74
2023/10/22 02:34:52;;;;;;;5.47;1.48;;;12.00;99.90;;;;;;5093334;28;20036;-73
2023/10/22 02:37:18;;;;;;;5.97;1.98;;;11.90;99.90;;;;;;5093442;28;20476;-74
2023/10/22 02:39:44;;;;;;;5.78;1.30;;;11.90;99.90;;;;;;5092901;28;20044;-73
2023/10/22 02:42:09;;;;;;;7.25;1.25;;;11.90;99.90;;;;;;5082605;28;20468;-73
2023/10/22 02:44:35;;;;;;;4.68;1.10;;;11.90;99.90;;;;;;5090043;28;20032;-73
2023/10/22 02:47:01;;;;;;;6.75;1.50;;;11.80;99.90;;;;;;5092792;28;20127;-73
2023/10/22 02:49:26;;;;;;;6.13;1.88;;;11.80;99.90;;;;;;5093008;28;20067;-73
2023/10/22 02:51:52;;;;;;;4.13;1.38;;;11.80;99.90;;;;;;5074568;28;20040;-74
2023/10/22 02:54:18;;;;;;;5.45;1.50;;;11.80;99.90;;;;;;5093113;28;20048;-73
2023/10/22 02:56:44;;;;;;;6.20;1.95;;;11.80;99.90;;;;;;5091873;28;20540;-73
2023/10/22 02:59:10;;;;;;;5.00;1.67;;;11.80;99.90;;;;;;5092832;28;20180;-73
2023/10/22 03:01:36;;;;;;;4.47;1.40;;;11.70;99.90;;;;;;5091131;28;20040;-74
2023/10/22 03:04:01;;;;;;;8.68;1.33;;;11.80;99.90;;;;;;5080980;28;20052;-73
2023/10/22 03:06:28;;;;;;;4.30;1.48;;;11.80;99.90;;;;;;5071867;28;20055;-73
2023/10/22 03:08:53;;;;;;;5.93;1.35;;;11.80;99.90;;;;;;5087146;28;20036;-74
2023/10/22 03:11:19;;;;;;;6.88;1.40;;;11.70;99.90;;;;;;5074709;28;20067;-74
2023/10/22 03:13:46;;;;;;;4.72;1.20;;;11.80;99.90;;;;;;5091541;28;20048;-74
2023/10/22 03:16:15;;;;;;;8.52;1.67;;;11.80;99.90;;;;;;5090469;28;20062;-74
2023/10/22 03:18:44;;;;;;;3.63;1.20;;;11.80;99.90;;;;;;5089710;28;20036;-74
2023/10/22 03:21:17;;;;;;;6.88;1.50;;;11.80;99.90;;;;;;5092502;28;20044;-74
2023/10/22 03:23:43;;;;;;;6.78;1.50;;;11.80;99.90;;;;;;5090997;28;20056;-74
2023/10/22 03:26:13;;;;;;;6.28;1.33;;;11.80;99.90;;;;;;5090912;28;20044;-74
2023/10/22 03:28:39;;;;;;;3.33;1.17;;;11.80;99.90;;;;;;5092090;28;20044;-74
2023/10/22 03:31:05;;;;;;;7.70;1.50;;;11.70;99.90;;;;;;5091818;28;20051;-74
2023/10/22 03:33:31;;;;;;;6.28;1.40;;;11.80;99.90;;;;;;5091271;28;20048;-74
2023/10/22 03:35:58;;;;;;;4.45;1.13;;;11.80;99.90;;;;;;5092266;28;20044;-74
2023/10/22 03:38:24;;;;;;;3.83;0.93;;;11.80;99.90;;;;;;5078471;28;20083;-74
2023/10/22 03:41:02;;;;;;;4.50;0.88;;;11.80;99.90;;;;;;5091960;28;20437;-74
2023/10/22 03:43:28;;;;;;;4.43;1.63;;;11.80;99.90;;;;;;5074019;28;20500;-74
2023/10/22 03:45:56;;;;;;;4.35;1.02;;;11.80;99.90;;;;;;5091143;28;20506;-73
2023/10/22 03:48:22;;;;;;;8.65;1.63;;;11.80;99.90;;;;;;5091748;28;20059;-73
2023/10/22 03:50:48;;;;;;;5.18;1.23;;;11.80;99.90;;;;;;5090971;28;20097;-73
2023/10/22 03:53:14;;;;;;;4.10;1.35;;;11.90;99.90;;;;;;5092554;28;20044;-74
2023/10/22 03:55:39;;;;;;;6.63;1.30;;;11.90;99.90;;;;;;5092160;28;20468;-74
2023/10/22 03:58:05;;;;;;;6.43;1.20;;;11.80;99.90;;;;;;5091167;28;20051;-74
2023/10/22 04:00:33;;;;;;;7.57;1.10;;;11.90;99.90;;;;;;5091988;28;20051;-74
2023/10/22 04:03:00;;;;;;;3.83;1.13;;;11.90;99.90;;;;;;5089842;28;20127;-74
2023/10/22 04:05:26;;;;;;;5.82;1.40;;;11.90;99.90;;;;;;5071195;28;20129;-74
2023/10/22 04:07:52;;;;;;;3.72;1.10;;;11.90;99.90;;;;;;5072216;28;20099;-74
2023/10/22 04:10:17;;;;;;;6.38;1.40;;;11.90;99.90;;;;;;5075316;28;20448;-73
2023/10/22 04:12:43;;;;;;;4.80;1.40;;;11.90;99.90;;;;;;5090456;28;20048;-74
2023/10/22 04:15:10;;;;;;;6.63;1.45;;;11.80;99.90;;;;;;5090132;28;20046;-74
2023/10/22 04:17:35;;;;;;;3.83;1.27;;;11.80;99.90;;;;;;5090287;28;20110;-73
2023/10/22 04:20:01;;;;;;;3.60;1.10;;;11.90;99.90;;;;;;5084525;28;20044;-74
2023/10/22 04:22:27;;;;;;;2.95;1.40;;;11.90;99.90;;;;;;5091451;28;20482;-74
2023/10/22 04:24:53;;;;;;;6.15;1.20;;;11.90;99.90;;;;;;5090429;28;20056;-73
2023/10/22 04:27:19;;;;;;;4.22;1.20;;;11.90;99.90;;;;;;5090960;28;20127;-73
2023/10/22 04:29:46;;;;;;;4.70;1.40;;;11.80;99.90;;;;;;5090122;28;20082;-73
2023/10/22 04:32:12;;;;;;;6.38;1.25;;;11.80;99.90;;;;;;5089800;28;20139;-75
2023/10/22 04:34:39;;;;;;;4.35;1.50;;;11.80;99.90;;;;;;5085427;28;20150;-74
2023/10/22 04:37:06;;;;;;;2.35;1.10;;;11.80;99.90;;;;;;5077962;28;20040;-73
2023/10/22 04:39:32;;;;;;;3.65;1.40;;;11.80;99.90;;;;;;5090362;28;20048;-74
2023/10/22 04:41:57;;;;;;;4.30;1.52;;;11.80;99.90;;;;;;5090979;28;20484;-74
2023/10/22 04:44:24;;;;;;;3.97;1.45;;;11.80;99.90;;;;;;5094030;28;20051;-73
2023/10/22 04:46:52;;;;;;;4.60;1.25;;;11.80;99.90;;;;;;5094855;28;20044;-74
2023/10/22 04:49:18;;;;;;;5.18;1.55;;;11.80;99.90;;;;;;5084299;28;20044;-73
2023/10/22 04:51:44;;;;;;;3.72;1.27;;;11.80;99.90;;;;;;5095586;28;20051;-74
2023/10/22 04:54:10;;;;;;;3.70;1.25;;;11.80;99.90;;;;;;5094204;28;20457;-73
2023/10/22 04:56:36;;;;;;;3.05;1.20;;;11.80;99.90;;;;;;5095459;28;20044;-73
2023/10/22 04:59:02;;;;;;;3.70;1.20;;;11.80;99.90;;;;;;5095208;28;20518;-73
2023/10/22 05:01:28;;;;;;;2.92;1.23;;;11.80;99.90;;;;;;5094838;28;20063;-73
2023/10/22 05:03:54;;;;;;;5.20;1.33;;;11.80;99.90;;;;;;5095033;28;20398;-75
2023/10/22 05:06:21;;;;;;;4.63;1.20;;;11.90;99.90;;;;;;5085440;28;20044;-75
2023/10/22 05:08:47;;;;;;;3.08;1.40;;;11.80;99.90;;;;;;5087962;28;20518;-76
2023/10/22 05:11:17;;;;;;;4.10;1.40;;;11.80;99.90;;;;;;5083630;28;20098;-74
2023/10/22 05:13:46;;;;;;;3.50;1.55;;;11.80;99.90;;;;;;5088213;28;20088;-74
2023/10/22 05:16:12;;;;;;;3.53;1.40;;;11.80;99.90;;;;;;5070102;28;20059;-74
2023/10/22 05:18:38;;;;;;;4.03;1.60;;;11.80;99.90;;;;;;5089814;28;20097;-74
2023/10/22 05:21:06;;;;;;;6.80;2.22;;;11.80;99.90;;;;;;5085218;28;20101;-74
2023/10/22 05:23:33;;;;;;;4.82;2.53;;;11.80;99.90;;;;;;5084052;28;20550;-74
2023/10/22 05:26:02;;;;;;;5.88;2.60;;;11.80;99.90;;;;;;5083807;28;20127;-74
2023/10/22 05:28:28;;;;;;;3.70;2.05;;;11.80;99.90;;;;;;5086537;28;20052;-74
2023/10/22 05:30:53;;;;;;;5.05;2.83;;;11.80;99.90;;;;;;5082518;28;20038;-74
2023/10/22 05:33:19;;;;;;;4.78;2.67;;;11.80;99.90;;;;;;5071991;28;20503;-74
2023/10/22 05:35:44;;;;;;;4.95;2.75;;;11.90;99.90;;;;;;5092892;28;20044;-74
2023/10/22 05:38:10;;;;;;;6.22;2.55;;;11.90;99.90;;;;;;5092390;28;20040;-74
2023/10/22 05:40:37;;;;;;;5.55;2.95;;;11.90;99.90;;;;;;5087866;28;20484;-74
2023/10/22 05:43:03;;;;;;;5.10;3.30;;;11.90;99.90;;;;;;5089934;28;20060;-76
2023/10/22 05:45:29;;;;;;;5.43;2.63;;;11.90;99.90;;;;;;5080923;28;20066;-74
2023/10/22 05:47:54;;;;;;;5.72;3.13;;;11.90;99.90;;;;;;5063825;28;20056;-74
2023/10/22 05:50:20;;;;;;;6.05;3.10;;;11.90;99.90;;;;;;5087204;28;20044;-74
2023/10/22 05:52:50;;;;;;;6.03;2.85;;;11.90;99.90;;;;;;5084203;28;20456;-74
2023/10/22 05:55:16;;;;;;;5.18;2.78;;;11.90;99.90;;;;;;5086965;28;20051;-74
2023/10/22 05:57:44;;;;;;;5.40;2.97;;;12.00;99.90;;;;;;5068693;28;20053;-74
2023/10/22 06:00:11;;;;;;;5.43;3.13;;;11.90;99.90;;;;;;5089260;28;20048;-74
2023/10/22 06:02:37;;;;;;;5.50;2.85;;;12.00;99.90;;;;;;5089723;28;20048;-74
2023/10/22 06:05:04;;;;;;;6.03;3.13;;;11.90;99.90;;;;;;5083523;28;20045;-74
2023/10/22 06:07:30;;;;;;;5.88;2.67;;;12.00;99.90;;;;;;5088927;28;20044;-74
2023/10/22 06:09:56;;;;;;;3.40;1.90;;;12.00;99.90;;;;;;5089123;28;20388;-75
2023/10/22 06:12:21;;;;;;;3.45;1.55;;;12.00;99.90;;;;;;5082430;28;20066;-75
2023/10/22 06:14:47;;;;;;;3.08;1.30;;;12.00;99.90;;;;;;5086072;28;20050;-75
2023/10/22 06:17:13;;;;;;;1.58;0.98;;;12.00;99.90;;;;;;5085786;28;20040;-75
2023/10/22 06:19:38;;;;;;;2.30;1.02;;;12.00;99.90;;;;;;5086331;28;20454;-75
2023/10/22 06:22:04;;;;;;;1.95;0.70;;;12.10;99.90;;;;;;5087725;28;20032;-75
2023/10/22 06:24:30;;;;;;;3.13;0.70;;;12.10;99.90;;;;;;5078609;28;20063;-75
2023/10/22 06:26:56;;;;;;;2.88;0.77;;;12.00;99.90;;;;;;5082144;28;20565;-75
2023/10/22 06:29:21;;;;;;;4.10;0.70;;;12.10;99.90;;;;;;5068214;28;20073;-75
2023/10/22 06:31:47;;;;;;;2.40;0.80;;;12.00;99.90;;;;;;5082014;28;20044;-75
2023/10/22 06:34:13;;;;;;;3.55;0.70;;;12.00;99.90;;;;;;5078312;28;20048;-75
2023/10/22 06:36:38;;;;;;;2.80;1.00;;;12.00;99.90;;;;;;5081789;28;20043;-75
2023/10/22 06:39:04;;;;;;;2.30;0.70;;;11.90;99.90;;;;;;5088096;28;20071;-75
2023/10/22 06:41:30;;;;;;;3.72;0.70;;;11.90;99.90;;;;;;5084717;28;20051;-76
2023/10/22 06:43:57;;;;;;;4.65;1.33;;;11.90;99.90;;;;;;5086317;28;20045;-76
2023/10/22 06:46:23;;;;;;;5.78;0.90;;;11.80;99.90;;;;;;5079517;28;20052;-75
2023/10/22 06:48:49;;;;;;;4.05;0.98;;;11.80;99.90;;;;;;5083290;28;20092;-75
2023/10/22 06:51:15;;;;;;;5.38;0.90;;;11.80;99.90;;;;;;5083480;28;20040;-76
2023/10/22 06:53:43;;;;;;;5.05;1.10;;;11.80;99.90;;;;;;5098836;28;20053;-75
2023/10/22 06:56:09;;;;;;;5.93;1.13;;;11.70;99.90;;;;;;5084659;28;20894;-76
2023/10/22 06:58:36;;;;;;;7.28;1.35;;;11.70;99.90;;;;;;5064019;28;20052;-77
2023/10/22 07:01:10;;;;;;;8.27;1.40;;;11.70;99.90;;;;;;5083971;28;20047;-82
2023/10/22 07:03:36;;;;;;;;;;;11.70;99.90;;;;;;5084508;28;20058;-78
2023/10/22 07:06:02;;;;;;;4.88;2.00;;;11.70;99.90;;;;;;5083614;28;20011;-79
2023/10/22 07:08:29;;;;;;;8.27;2.15;;;11.70;99.90;;;;;;5081863;28;20435;-78
2023/10/22 07:10:55;;;;;;;5.22;2.05;;;11.70;99.90;;;;;;5085739;28;20549;-79
2023/10/22 07:13:26;;;;;;;6.20;1.48;;;11.70;99.90;;;;;;5081193;28;20044;-78
2023/10/22 07:15:53;;;;;;;6.93;2.05;;;11.70;99.90;;;;;;5071352;28;20048;-78
2023/10/22 07:18:22;;;;;;;6.40;2.13;;;11.70;99.90;;;;;;5089573;28;20837;-77
2023/10/22 07:20:49;;;;;;;8.43;2.13;;;11.70;99.90;;;;;;5085901;28;20045;-78
2023/10/22 07:23:15;;;;;;;7.28;2.30;;;11.70;99.90;;;;;;5066134;28;20060;-78
2023/10/22 07:25:43;;;;;;;8.10;2.30;;;11.80;99.90;;;;;;5090516;28;20106;-77
2023/10/22 07:28:09;;;;;;;9.70;1.90;;;11.80;99.90;;;;;;5082817;28;20550;-77
2023/10/22 07:30:34;;;;;;;5.97;1.80;;;11.80;99.90;;;;;;5084232;28;20135;-77
2023/10/22 07:33:00;;;;;;;7.72;2.00;;;11.80;99.90;;;;;;5091924;28;20143;-77
2023/10/22 07:35:26;;;;;;;10.45;2.30;;;11.80;99.90;;;;;;5076483;28;20046;-77
2023/10/22 07:37:51;;;;;;;8.45;2.00;;;11.80;99.90;;;;;;5075726;28;20607;-78
2023/10/22 07:40:20;;;;;;;5.97;2.00;;;11.80;99.90;;;;;;5085674;28;20111;-78
2023/10/22 07:42:48;;;;;;;7.25;2.35;;;11.80;99.90;;;;;;5083592;28;20506;-77
2023/10/22 07:45:14;;;;;;;8.65;1.90;;;11.80;99.90;;;;;;5093583;28;20558;-77
2023/10/22 07:47:41;;;;;;;6.78;2.28;;;11.80;99.90;;;;;;5086441;28;20044;-77
2023/10/22 07:50:07;;;;;;;5.93;2.20;;;11.80;99.90;;;;;;5083013;28;20054;-76
2023/10/22 07:52:36;;;;;;;6.85;2.28;;;11.70;99.90;;;;;;5083481;28;20080;-78
2023/10/22 07:55:04;;;;;;;4.75;2.10;;;11.80;99.90;;;;;;5085680;28;20048;-79
2023/10/22 07:57:29;;;;;;;7.97;2.15;;;11.80;99.90;;;;;;5090699;28;20039;-78
2023/10/22 07:59:56;;;;;;;4.45;2.20;;;11.80;99.90;;;;;;5085493;28;20036;-76
2023/10/22 08:02:22;;;;;;;6.80;1.95;;;11.80;99.90;;;;;;5081243;28;20059;-77
2023/10/22 08:04:47;;;;;;;7.20;2.42;;;11.80;99.90;;;;;;5081098;28;20481;-78
2023/10/22 08:07:17;;;;;;;9.75;2.83;;;11.90;99.90;;;;;;5088440;28;20048;-77
2023/10/22 08:09:43;;;;;;;5.78;2.30;;;11.90;99.90;;;;;;5067606;28;20069;-77
2023/10/22 08:12:13;;;;;;;6.85;2.03;;;11.90;99.90;;;;;;5079772;28;20054;-77
2023/10/22 08:14:38;;;;;;;5.75;2.20;;;12.00;99.90;;;;;;5079780;28;20036;-77
2023/10/22 08:17:04;;;;;;;8.40;2.40;;;12.00;99.90;;;;;;5083433;28;20051;-76
2023/10/22 08:19:30;;;;;;;11.07;2.50;;;12.00;99.90;;;;;;5082319;28;20124;-76
2023/10/22 08:21:55;;;;;;;6.50;2.85;;;12.10;99.90;;;;;;5080472;28;20036;-76
2023/10/22 08:24:23;;;;;;;6.97;2.72;;;12.10;99.90;;;;;;5079664;28;20048;-76
2023/10/22 08:26:48;;;;;;;9.77;3.58;;;12.10;99.90;;;;;;5082126;28;20051;-76
2023/10/22 08:29:14;;;;;;;9.02;3.20;;;12.20;99.90;;;;;;5086964;28;20040;-77
2023/10/22 08:31:40;;;;;;;5.97;2.47;;;12.20;99.90;;;;;;5066783;28;20059;-77
2023/10/22 08:34:05;;;;;;;9.43;2.40;;;12.20;99.90;;;;;;5086308;28;20438;-77
2023/10/22 08:36:31;;;;;;;7.70;2.28;;;12.20;99.90;;;;;;5084194;28;20460;-77
2023/10/22 08:38:57;;;;;;;7.00;2.17;;;12.30;99.90;;;;;;5081891;28;20036;-77
2023/10/22 08:41:25;;;;;;;8.63;2.80;;;12.30;99.90;;;;;;5086003;28;20082;-77
2023/10/22 08:43:51;;;;;;;5.38;2.30;;;12.30;99.90;;;;;;5087723;28;20438;-77
2023/10/22 08:46:17;;;;;;;8.73;2.33;;;12.30;99.90;;;;;;5090511;28;20053;-77
2023/10/22 08:48:44;;;;;;;10.27;2.45;;;12.40;99.90;;;;;;5087947;28;20044;-77
2023/10/22 08:51:10;;;;;;;8.38;2.28;;;12.40;99.90;;;;;;5091229;28;20117;-77
2023/10/22 08:53:36;;;;;;;7.45;2.70;;;12.40;99.90;;;;;;5085550;28;20099;-77
2023/10/22 08:56:03;;;;;;;4.93;2.45;;;12.40;99.90;;;;;;5086594;28;20659;-76
2023/10/22 08:58:29;;;;;;;8.20;1.70;;;12.50;99.90;;;;;;5087765;28;20079;-77
2023/10/22 09:00:54;;;;;;;4.00;1.60;;;12.50;99.90;;;;;;5088349;28;20119;-77
2023/10/22 09:03:22;;;;;;;3.65;1.85;;;12.50;99.90;;;;;;5080172;28;20127;-77
2023/10/22 09:05:53;;;;;;;4.80;1.80;;;12.50;99.90;;;;;;5082578;28;20190;-76
2023/10/22 09:08:18;;;;;;;5.88;1.65;;;12.60;99.90;;;;;;5083683;28;20044;-77
2023/10/22 09:10:44;;;;;;;5.60;1.63;;;12.60;99.90;;;;;;5086744;28;22669;-76
2023/10/22 09:13:12;;;;;;;5.72;1.35;;;12.60;99.90;;;;;;5088930;28;20046;-77
2023/10/22 09:15:43;;;;;;;5.78;1.95;;;12.60;99.90;;;;;;5086157;28;20049;-76
2023/10/22 09:18:09;;;;;;;5.80;1.05;;;12.70;99.90;;;;;;5088348;28;20483;-77
2023/10/22 09:20:35;;;;;;;6.35;0.98;;;12.70;99.90;;;;;;5085927;28;20095;-77
2023/10/22 09:23:21;;;;;;;5.82;1.05;;;12.80;99.90;;;;;;5085609;28;20044;-77
2023/10/22 09:25:49;;;;;;;3.88;1.00;;;12.90;99.90;;;;;;5100486;28;20109;-76
2023/10/22 09:28:17;;;;;;;5.57;0.90;;;13.00;99.90;;;;;;5086824;28;20655;-77
2023/10/22 09:30:43;;;;;;;3.78;0.88;;;13.20;99.90;;;;;;5087326;28;20115;-77
2023/10/22 09:33:15;;;;;;;3.63;0.90;;;13.30;99.90;;;;;;5074652;28;20850;-77
2023/10/22 09:35:41;;;;;;;3.65;0.82;;;13.40;99.90;;;;;;5082884;28;20044;-76
2023/10/22 09:38:06;;;;;;;4.63;0.80;;;13.50;99.90;;;;;;5086058;28;20811;-76
2023/10/22 09:40:33;;;;;;;3.65;0.70;;;13.60;99.90;;;;;;5088877;28;20226;-76
2023/10/22 09:43:04;;;;;;;3.60;0.80;;;13.80;99.90;;;;;;5085893;28;20092;-77
2023/10/22 09:45:30;;;;;;;5.25;0.80;;;13.90;99.90;;;;;;5068425;28;20523;-76
2023/10/22 09:48:00;;;;;;;3.97;0.70;;;14.00;99.90;;;;;;5089405;28;20044;-76
2023/10/22 09:50:29;;;;;;;4.68;0.98;;;14.10;99.90;;;;;;5092611;28;20043;-76
2023/10/22 09:52:55;;;;;;;2.92;0.82;;;14.20;99.90;;;;;;5088290;28;20482;-76
2023/10/22 09:55:23;;;;;;;4.45;0.70;;;14.30;99.90;;;;;;5090304;28;20398;-76
2023/10/22 09:57:49;;;;;;;4.20;0.63;;;14.30;99.90;;;;;;5092396;28;20035;-76
2023/10/22 10:00:17;;;;;;;2.47;0.82;;;14.30;99.90;;;;;;5085639;28;20040;-76
2023/10/22 10:02:44;;;;;;;3.90;0.65;;;14.10;99.90;;;;;;5049311;28;20090;-77
2023/10/22 10:05:12;;;;;;;5.32;0.80;;;14.00;99.90;;;;;;5092041;28;20496;-77
2023/10/22 10:07:39;;;;;;;6.25;0.80;;;13.90;99.90;;;;;;5092139;28;20403;-76
2023/10/22 10:10:06;;;;;;;6.25;1.23;;;13.80;99.90;;;;;;5075303;28;20032;-77
2023/10/22 10:12:36;;;;;;;3.60;0.80;;;13.80;99.90;;;;;;5088547;28;20056;-76
2023/10/22 10:15:02;;;;;;;2.08;0.60;;;13.80;99.90;;;;;;5093385;28;20286;-76
2023/10/22 10:17:28;;;;;;;2.38;0.70;;;14.00;99.90;;;;;;5092092;28;20045;-76
2023/10/22 10:20:24;;;;;;;6.90;0.70;;;14.10;99.90;;;;;;5092571;28;20123;-77
2023/10/22 10:23:03;;;;;;;4.85;0.60;;;14.20;99.90;;;;;;5090999;28;20087;-76
2023/10/22 10:25:34;;;;;;;4.95;0.70;;;14.20;99.90;;;;;;5075761;28;20059;-76
2023/10/22 10:28:02;;;;;;;3.33;0.63;;;14.30;99.90;;;;;;5092383;28;20063;-77
2023/10/22 10:30:27;;;;;;;2.38;0.65;;;14.50;99.90;;;;;;5089934;28;20148;-76
2023/10/22 10:32:54;;;;;;;2.20;0.73;;;14.70;99.90;;;;;;5091749;28;20062;-77
2023/10/22 10:35:21;;;;;;;6.30;0.90;;;14.80;99.90;;;;;;5092158;28;20040;-77
2023/10/22 10:38:14;;;;;;;2.05;0.50;;;14.80;99.90;;;;;;5074896;28;20558;-76
2023/10/22 10:40:45;;;;;;;2.50;0.40;;;14.70;99.90;;;;;;5091664;28;20040;-76
2023/10/22 10:43:11;;;;;;;2.67;0.40;;;14.50;99.90;;;;;;5091993;28;20131;-76
2023/10/22 10:45:41;;;;;;;3.83;0.80;;;14.40;99.90;;;;;;5091591;28;20044;-76
2023/10/22 10:48:42;;;;;;;3.17;0.38;;;14.30;99.90;;;;;;5091026;28;20051;-76
2023/10/22 10:51:15;;;;;;;2.13;0.45;;;14.40;99.90;;;;;;5087015;28;20484;-76
2023/10/22 10:54:24;;;;;;;1.00;0.40;;;14.50;99.90;;;;;;5091424;28;20048;-76
2023/10/22 10:56:51;;;;;;;2.80;0.30;;;14.50;99.90;;;;;;5074534;28;20044;-76
2023/10/22 10:59:30;;;;;;;3.08;0.43;;;14.60;99.90;;;;;;5091399;28;20455;-76
2023/10/22 11:02:10;;;;;;;2.05;0.40;;;14.70;99.90;;;;;;5071032;28;20135;-76
2023/10/22 11:04:38;;;;;;;1.63;0.50;;;14.70;99.90;;;;;;5068271;28;20044;-76
2023/10/22 11:07:05;;;;;;;2.55;0.60;;;14.70;99.90;;;;;;5072029;28;20449;-76
2023/10/22 11:09:33;;;;;;;2.22;0.50;;;14.70;99.90;;;;;;5080693;28;20055;-76
2023/10/22 11:12:03;;;;;;;2.28;0.47;;;14.70;99.90;;;;;;5085619;28;20079;-76
2023/10/22 11:14:30;;;;;;;2.50;0.50;;;14.60;99.90;;;;;;5089269;28;20495;-76
2023/10/22 11:16:59;;;;;;;0.75;0.30;;;14.50;99.90;;;;;;5090944;28;20046;-76
2023/10/22 11:19:27;;;;;;;2.35;0.43;;;14.50;99.90;;;;;;5089965;28;20040;-76
2023/10/22 11:21:54;;;;;;;3.22;0.50;;;14.50;99.90;;;;;;5091465;28;20044;-76
2023/10/22 11:24:31;;;;;;;2.15;0.47;;;14.40;99.90;;;;;;5091076;28;20507;-76
2023/10/22 11:26:58;;;;;;;3.20;0.60;;;14.40;99.90;;;;;;5091061;28;20036;-77
2023/10/22 11:29:24;;;;;;;2.88;0.60;;;14.30;99.90;;;;;;5089856;28;20109;-76
2023/10/22 11:31:57;;;;;;;1.02;0.35;;;14.20;99.90;;;;;;5091117;28;20040;-77
2023/10/22 11:34:24;;;;;;;2.55;0.60;;;14.10;99.90;;;;;;5091298;28;20579;-77
2023/10/22 11:36:59;;;;;;;1.50;0.40;;;14.10;99.90;;;;;;5091391;28;20487;-76
2023/10/22 11:39:34;;;;;;;2.20;0.50;;;14.00;99.90;;;;;;5090741;28;20101;-76
2023/10/22 11:42:01;;;;;;;7.55;0.75;;;13.90;99.90;;;;;;5091560;28;20044;-76
2023/10/22 11:44:31;;;;;;;2.33;0.82;;;13.80;99.90;;;;;;5090201;28;20515;-77
2023/10/22 11:46:59;;;;;;;1.95;0.40;;;13.80;99.90;;;;;;5074118;28;20630;-76
2023/10/22 11:49:24;;;;;;;4.05;0.40;;;13.80;99.90;;;;;;5089897;28;20044;-76
2023/10/22 11:51:50;;;;;;;5.70;0.50;;;13.70;99.90;;;;;;5074434;28;20095;-76
2023/10/22 11:54:15;;;;;;;3.83;0.50;;;13.70;99.90;;;;;;5094893;28;20067;-76
2023/10/22 11:56:41;;;;;;;1.60;0.30;;;13.70;99.90;;;;;;5096859;28;20048;-77
2023/10/22 11:59:07;;;;;;;1.98;0.30;;;13.70;99.90;;;;;;5094746;28;20088;-76
2023/10/22 12:01:33;;;;;;;2.15;0.40;;;13.60;99.90;;;;;;5094510;28;20044;-76
2023/10/22 12:03:59;;;;;;;1.55;0.38;;;13.70;99.90;;;;;;5088485;28;20055;-77
2023/10/22 12:06:25;;;;;;;1.75;0.38;;;13.60;99.90;;;;;;5083464;28;20052;-76
2023/10/22 12:08:51;;;;;;;1.33;0.20;;;13.60;99.90;;;;;;5091419;28;20127;-76
2023/10/22 12:11:17;;;;;;;2.45;0.40;;;13.50;99.90;;;;;;5095695;28;20217;-76
2023/10/22 12:13:42;;;;;;;1.50;0.50;;;13.50;99.90;;;;;;5095107;28;20380;-76
2023/10/22 12:16:08;;;;;;;2.28;0.40;;;13.50;99.90;;;;;;5094770;28;20047;-76
2023/10/22 12:18:36;;;;;;;1.80;0.40;;;13.50;99.90;;;;;;5094107;28;20062;-76
2023/10/22 12:21:02;;;;;;;1.25;0.30;;;13.50;99.90;;;;;;5095493;28;20047;-76
2023/10/22 12:23:28;;;;;;;2.63;0.40;;;13.60;99.90;;;;;;5094024;28;20056;-76
2023/10/22 12:25:53;;;;;;;4.00;0.30;;;13.80;99.90;;;;;;5094394;28;20055;-77
2023/10/22 12:28:24;;;;;;;5.07;0.75;;;14.10;99.90;;;;;;5094921;28;20407;-76
2023/10/22 12:30:50;;;;;;;2.63;0.32;;;14.30;99.90;;;;;;5094044;28;20044;-76
2023/10/22 12:33:15;;;;;;;0.73;0.30;;;14.50;99.90;;;;;;5093875;28;20055;-76
2023/10/22 12:35:41;;;;;;;1.38;0.45;;;14.70;99.90;;;;;;5094292;28;20044;-76
2023/10/22 12:38:07;;;;;;;3.03;0.40;;;14.90;99.90;;;;;;5092997;28;20048;-76
2023/10/22 12:40:34;;;;;;;1.70;0.30;;;15.00;99.90;;;;;;5093571;28;20055;-77
2023/10/22 12:42:59;;;;;;;1.13;0.30;;;15.20;99.90;;;;;;5093910;28;20106;-77
2023/10/22 12:45:25;;;;;;;1.33;0.45;;;15.30;99.90;;;;;;5093832;28;20646;-77
2023/10/22 12:47:50;;;;;;;1.35;0.30;;;15.40;99.90;;;;;;5094185;28;20054;-76